Eastend Cypress, Canada
Current Conditions -  °F | °C
As of 1:53 AM on Thursday 27 Nov 2014 (Local Time) from KHVR Reporting Station
Overcast Overcast  
Wind Chill: 20°   Ceiling: 7500
Heat Index: 29°   Visibility: 10mi
Dew Point: 26°   Wind: 10mph
Humidity: 89%   Direction: 70°ENE
Pressure: 29.98"   Gusts: NA
Location:  49.43°N, 108.98°W
Report Text: KHVR 270753Z AUTO 07009KT 10SM OVC075 M02/M03 A2998 RMK AO2 SLP181 T10171033
Loading
Personal Weather Stations






























Interactive Weather Map New forecast layout! Learn more

10-Day Weather Forecast

Advertisements
Track Severe Weather on mobile